createdAt,value
2022-12-18T00:00:59.846Z,-2.15
2022-12-18T00:02:00.043Z,-2.18
2022-12-18T00:02:59.987Z,-2.21
2022-12-18T00:03:59.980Z,-2.26
2022-12-18T00:04:59.799Z,-2.29
2022-12-18T00:05:59.789Z,-2.27
2022-12-18T00:06:59.778Z,-2.24
2022-12-18T00:07:59.789Z,-2.24
2022-12-18T00:08:59.759Z,-2.24
2022-12-18T00:09:59.769Z,-2.24
2022-12-18T00:11:00.582Z,-2.24
2022-12-18T00:11:59.769Z,-2.27
2022-12-18T00:13:02.581Z,-2.30
2022-12-18T00:13:59.698Z,-2.30
2022-12-18T00:14:59.686Z,-2.27
2022-12-18T00:15:59.730Z,-2.27
2022-12-18T00:16:59.668Z,-2.27
2022-12-18T00:17:59.677Z,-2.27
2022-12-18T00:18:59.647Z,-2.27
2022-12-18T00:19:59.655Z,-2.29
2022-12-18T00:20:59.628Z,-2.29
2022-12-18T00:21:59.607Z,-2.27
2022-12-18T00:22:59.605Z,-2.26
2022-12-18T00:23:59.626Z,-2.29
2022-12-18T00:24:59.596Z,-2.20
2022-12-18T00:25:59.561Z,-2.15
2022-12-18T00:26:59.579Z,-2.15
2022-12-18T00:27:59.581Z,-2.18
2022-12-18T00:28:59.551Z,-2.23
2022-12-18T00:29:59.517Z,-2.20
2022-12-18T00:30:59.502Z,-2.20
2022-12-18T00:31:59.542Z,-2.23
2022-12-18T00:32:59.486Z,-2.21
2022-12-18T00:33:59.493Z,-2.18
2022-12-18T00:34:59.471Z,-2.18
2022-12-18T00:35:59.473Z,-2.20
2022-12-18T00:36:59.436Z,-2.23
2022-12-18T00:37:59.439Z,-2.27
2022-12-18T00:38:59.416Z,-2.26
2022-12-18T00:39:59.438Z,-2.23
2022-12-18T00:40:59.395Z,-2.24
2022-12-18T00:41:59.396Z,-2.26
2022-12-18T00:42:59.371Z,-2.21
2022-12-18T00:43:59.391Z,-2.23
2022-12-18T00:44:59.364Z,-2.23
2022-12-18T00:45:59.404Z,-2.21
2022-12-18T00:46:59.341Z,-2.16
2022-12-18T00:47:59.340Z,-2.15
2022-12-18T00:48:59.309Z,-2.13
2022-12-18T00:49:59.314Z,-2.15
2022-12-18T00:50:59.291Z,-2.21
2022-12-18T00:51:59.271Z,-2.24
2022-12-18T00:52:59.281Z,-2.24
2022-12-18T00:53:59.255Z,-2.24
2022-12-18T00:55:04.468Z,-2.23
2022-12-18T00:55:59.257Z,-2.26
2022-12-18T00:56:59.263Z,-2.21
2022-12-18T00:57:59.233Z,-2.18
2022-12-18T00:58:59.202Z,-2.21
2022-12-18T00:59:59.195Z,-2.16
2022-12-18T01:00:59.204Z,-2.18
2022-12-18T01:01:59.321Z,-2.12
2022-12-18T01:02:59.218Z,-2.10
2022-12-18T01:03:59.162Z,-2.08
2022-12-18T01:04:59.139Z,-2.08
2022-12-18T01:05:59.134Z,-2.06
2022-12-18T01:06:59.123Z,-2.05
2022-12-18T01:07:59.109Z,-2.06
2022-12-18T01:08:59.094Z,-2.05
2022-12-18T01:09:59.091Z,-2.06
2022-12-18T01:10:59.079Z,-2.05
2022-12-18T01:11:59.066Z,-2.05
2022-12-18T01:12:59.053Z,-2.06
2022-12-18T01:13:59.070Z,-2.03
2022-12-18T01:14:59.038Z,-2.03
2022-12-18T01:15:59.054Z,-2.05
2022-12-18T01:16:59.007Z,-2.03
2022-12-18T01:17:58.993Z,-2.02
2022-12-18T01:18:58.998Z,-2.05
2022-12-18T01:19:59.005Z,-2.05
2022-12-18T01:20:58.960Z,-2.06
2022-12-18T01:21:58.955Z,-2.02
2022-12-18T01:22:58.967Z,-2.03
2022-12-18T01:23:58.952Z,-2.03
2022-12-18T01:24:58.925Z,-2.03
2022-12-18T01:25:58.917Z,-2.02
2022-12-18T01:26:58.924Z,-2.02
2022-12-18T01:27:58.895Z,-2.02
2022-12-18T01:28:58.885Z,-2.02
2022-12-18T01:29:58.859Z,-2.00
2022-12-18T01:30:58.849Z,-1.94
2022-12-18T01:31:58.888Z,-1.92
2022-12-18T01:32:58.832Z,-1.98
2022-12-18T01:33:58.829Z,-1.97
2022-12-18T01:34:58.803Z,-2.00
2022-12-18T01:35:58.799Z,-2.00
2022-12-18T01:36:58.778Z,-2.00
2022-12-18T01:37:58.794Z,-1.98
2022-12-18T01:38:58.777Z,-1.98
2022-12-18T01:39:58.769Z,-1.98
2022-12-18T01:40:58.744Z,-1.98
2022-12-18T01:41:58.746Z,-2.02
2022-12-18T01:42:58.714Z,-2.02
2022-12-18T01:43:58.719Z,-2.02
2022-12-18T01:44:58.697Z,-2.05
2022-12-18T01:45:58.770Z,-2.05
2022-12-18T01:46:58.716Z,-2.06
2022-12-18T01:47:58.665Z,-2.05
2022-12-18T01:48:58.660Z,-2.06
2022-12-18T01:49:58.665Z,-2.08
2022-12-18T01:50:58.637Z,-2.08
2022-12-18T01:51:58.623Z,-2.08
2022-12-18T01:52:58.634Z,-2.08
2022-12-18T01:53:58.611Z,-2.09
2022-12-18T01:54:58.589Z,-2.10
2022-12-18T01:55:58.600Z,-2.12
2022-12-18T01:56:58.575Z,-2.16
2022-12-18T01:57:58.583Z,-2.16
2022-12-18T01:58:58.560Z,-2.18
2022-12-18T01:59:58.544Z,-2.15
2022-12-18T02:00:58.599Z,-2.15
2022-12-18T02:01:58.720Z,-2.18
2022-12-18T02:02:58.642Z,-2.20
2022-12-18T02:03:58.501Z,-2.21
2022-12-18T02:04:58.480Z,-2.21
2022-12-18T02:05:58.468Z,-2.21
2022-12-18T02:06:58.467Z,-2.20
2022-12-18T02:07:58.465Z,-2.20
2022-12-18T02:08:58.451Z,-2.21
2022-12-18T02:09:58.431Z,-2.21
2022-12-18T02:10:58.433Z,-2.16
2022-12-18T02:11:58.413Z,-2.16
2022-12-18T02:12:58.406Z,-2.15
2022-12-18T02:13:58.390Z,-2.18
2022-12-18T02:14:58.371Z,-2.20
2022-12-18T02:15:58.353Z,-2.20
2022-12-18T02:16:58.416Z,-2.20
2022-12-18T02:17:58.348Z,-2.20
2022-12-18T02:18:58.353Z,-2.16
2022-12-18T02:19:58.322Z,-2.16
2022-12-18T02:20:58.311Z,-2.12
2022-12-18T02:21:58.296Z,-2.10
2022-12-18T02:22:58.294Z,-2.12
2022-12-18T02:23:58.293Z,-2.10
2022-12-18T02:24:58.258Z,-2.05
2022-12-18T02:25:58.256Z,-2.02
2022-12-18T02:26:58.254Z,-2.03
2022-12-18T02:27:58.250Z,-2.02
2022-12-18T02:28:58.282Z,-2.02
2022-12-18T02:29:59.092Z,-2.05
2022-12-18T02:30:58.254Z,-2.09
2022-12-18T02:31:58.192Z,-2.12
2022-12-18T02:32:58.184Z,-2.15
2022-12-18T02:33:58.170Z,-2.18
2022-12-18T02:34:58.162Z,-2.21
2022-12-18T02:35:58.171Z,-2.24
2022-12-18T02:36:58.148Z,-2.26
2022-12-18T02:37:58.123Z,-2.32
2022-12-18T02:38:58.111Z,-2.34
2022-12-18T02:39:58.116Z,-2.34
2022-12-18T02:40:58.098Z,-2.37
2022-12-18T02:41:58.103Z,-2.35
2022-12-18T02:42:58.083Z,-2.39
2022-12-18T02:43:58.052Z,-2.39
2022-12-18T02:44:58.050Z,-2.37
2022-12-18T02:45:58.060Z,-2.39
2022-12-18T02:46:58.030Z,-2.40
2022-12-18T02:47:58.021Z,-2.42
2022-12-18T02:48:57.996Z,-2.43
2022-12-18T02:49:58.003Z,-2.42
2022-12-18T02:50:57.992Z,-2.43
2022-12-18T02:51:57.972Z,-2.48
2022-12-18T02:52:57.959Z,-2.48
2022-12-18T02:53:57.951Z,-2.48
2022-12-18T02:54:57.936Z,-2.45
2022-12-18T02:55:57.919Z,-2.42
2022-12-18T02:56:57.925Z,-2.39
2022-12-18T02:57:57.897Z,-2.40
2022-12-18T02:58:57.894Z,-2.40
2022-12-18T02:59:57.880Z,-2.39
2022-12-18T03:00:57.932Z,-2.39
2022-12-18T03:01:58.085Z,-2.42
2022-12-18T03:02:57.944Z,-2.40
2022-12-18T03:03:57.840Z,-2.40
2022-12-18T03:04:57.837Z,-2.42
2022-12-18T03:05:57.828Z,-2.45
2022-12-18T03:06:57.804Z,-2.48
2022-12-18T03:07:57.812Z,-2.50
2022-12-18T03:08:57.784Z,-2.53
2022-12-18T03:09:57.775Z,-2.56
2022-12-18T03:10:57.761Z,-2.61
2022-12-18T03:11:57.770Z,-2.61
2022-12-18T03:12:57.736Z,-2.63
2022-12-18T03:13:57.739Z,-2.64
2022-12-18T03:14:57.727Z,-2.67
2022-12-18T03:15:57.701Z,-2.70
2022-12-18T03:16:57.760Z,-2.70
2022-12-18T03:17:57.692Z,-2.70
2022-12-18T03:18:57.701Z,-2.70
2022-12-18T03:19:57.658Z,-2.74
2022-12-18T03:20:57.645Z,-2.73
2022-12-18T03:21:57.652Z,-2.74
2022-12-18T03:22:57.658Z,-2.74
2022-12-18T03:23:57.616Z,-2.79
2022-12-18T03:24:57.609Z,-2.82
2022-12-18T03:25:57.590Z,-2.82
2022-12-18T03:26:57.583Z,-2.84
2022-12-18T03:27:57.581Z,-2.82
2022-12-18T03:28:57.574Z,-2.85
2022-12-18T03:29:57.567Z,-2.86
2022-12-18T03:30:57.600Z,-2.82
2022-12-18T03:31:57.544Z,-2.84
2022-12-18T03:33:00.210Z,-2.77
2022-12-18T03:33:57.506Z,-2.73
2022-12-18T03:34:57.510Z,-2.74
2022-12-18T03:35:57.531Z,-2.77
2022-12-18T03:36:57.467Z,-2.78
2022-12-18T03:37:57.461Z,-2.81
2022-12-18T03:38:57.465Z,-2.85
2022-12-18T03:39:57.436Z,-2.86
2022-12-18T03:40:57.455Z,-2.86
2022-12-18T03:41:57.416Z,-2.88
2022-12-18T03:42:57.428Z,-2.88
2022-12-18T03:43:57.406Z,-2.89
2022-12-18T03:44:57.378Z,-2.89
2022-12-18T03:45:57.430Z,-2.91
2022-12-18T03:46:57.380Z,-2.88
2022-12-18T03:47:57.361Z,-2.82
2022-12-18T03:48:57.332Z,-2.82
2022-12-18T03:49:57.333Z,-2.84
2022-12-18T03:50:57.331Z,-2.85
2022-12-18T03:51:57.310Z,-2.86
2022-12-18T03:52:57.304Z,-2.86
2022-12-18T03:53:57.286Z,-2.88
2022-12-18T03:54:57.278Z,-2.88
2022-12-18T03:55:57.264Z,-2.84
2022-12-18T03:56:57.281Z,-2.78
2022-12-18T03:57:57.245Z,-2.71
2022-12-18T03:58:57.232Z,-2.71
2022-12-18T03:59:57.223Z,-2.71
2022-12-18T04:00:57.218Z,-2.73
2022-12-18T04:01:57.343Z,-2.78
2022-12-18T04:02:57.189Z,-2.79
2022-12-18T04:03:57.213Z,-2.82
2022-12-18T04:04:57.163Z,-2.84
2022-12-18T04:05:57.155Z,-2.82
2022-12-18T04:06:57.132Z,-2.85
2022-12-18T04:07:57.136Z,-2.88
2022-12-18T04:08:57.115Z,-2.91
2022-12-18T04:09:57.111Z,-2.96
2022-12-18T04:10:57.091Z,-2.97
2022-12-18T04:11:57.115Z,-3.02
2022-12-18T04:12:57.078Z,-3.05
2022-12-18T04:13:57.070Z,-3.03
2022-12-18T04:14:57.080Z,-3.06
2022-12-18T04:15:57.105Z,-3.07
2022-12-18T04:16:57.034Z,-3.09
2022-12-18T04:17:57.042Z,-3.14
2022-12-18T04:18:57.047Z,-3.07
2022-12-18T04:19:56.997Z,-3.14
2022-12-18T04:20:57.010Z,-3.17
2022-12-18T04:21:56.976Z,-3.17
2022-12-18T04:22:56.967Z,-3.18
2022-12-18T04:23:56.974Z,-3.18
2022-12-18T04:24:56.941Z,-3.18
2022-12-18T04:25:56.929Z,-3.14
2022-12-18T04:26:56.928Z,-3.12
2022-12-18T04:27:56.907Z,-3.12
2022-12-18T04:28:56.919Z,-3.10
2022-12-18T04:29:56.899Z,-3.10
2022-12-18T04:30:57.018Z,-3.03
2022-12-18T04:31:56.872Z,-2.99
2022-12-18T04:32:56.857Z,-2.97
2022-12-18T04:33:56.859Z,-2.99
2022-12-18T04:34:56.844Z,-3.00
2022-12-18T04:35:56.825Z,-3.02
2022-12-18T04:36:56.838Z,-3.05
2022-12-18T04:37:56.796Z,-3.05
2022-12-18T04:38:56.793Z,-3.06
2022-12-18T04:39:56.794Z,-3.09
2022-12-18T04:40:56.759Z,-3.10
2022-12-18T04:41:56.772Z,-3.06
2022-12-18T04:42:56.851Z,-3.09
2022-12-18T04:43:56.733Z,-3.07
2022-12-18T04:44:56.722Z,-2.99
2022-12-18T04:45:56.724Z,-2.89
2022-12-18T04:46:56.695Z,-2.88
2022-12-18T04:47:56.704Z,-2.85
2022-12-18T04:48:56.707Z,-2.86
2022-12-18T04:49:56.673Z,-2.88
2022-12-18T04:50:56.657Z,-2.82
2022-12-18T04:51:56.661Z,-2.81
2022-12-18T04:52:56.642Z,-2.82
2022-12-18T04:53:56.629Z,-2.85
2022-12-18T04:54:56.624Z,-2.89
2022-12-18T04:55:56.621Z,-2.92
2022-12-18T04:56:56.624Z,-2.89
2022-12-18T04:57:56.579Z,-2.89
2022-12-18T04:58:56.567Z,-2.91
2022-12-18T04:59:56.582Z,-2.91
2022-12-18T05:00:56.543Z,-2.89
2022-12-18T05:01:56.637Z,-2.86
2022-12-18T05:02:56.724Z,-2.88
2022-12-18T05:03:56.566Z,-2.86
2022-12-18T05:04:56.503Z,-2.85
2022-12-18T05:05:56.482Z,-2.84
2022-12-18T05:06:56.486Z,-2.85
2022-12-18T05:07:56.485Z,-2.84
2022-12-18T05:08:56.473Z,-2.88
2022-12-18T05:09:56.450Z,-2.88
2022-12-18T05:10:56.441Z,-2.86
2022-12-18T05:11:56.435Z,-2.88
2022-12-18T05:12:56.414Z,-2.89
2022-12-18T05:13:56.417Z,-2.92
2022-12-18T05:14:56.386Z,-3.00
2022-12-18T05:15:56.466Z,-3.02
2022-12-18T05:17:00.714Z,-3.02
2022-12-18T05:17:56.356Z,-3.03
2022-12-18T05:18:56.365Z,-3.06
2022-12-18T05:19:56.329Z,-3.00
2022-12-18T05:20:56.336Z,-2.94
2022-12-18T05:21:56.334Z,-2.86
2022-12-18T05:22:56.296Z,-2.84
2022-12-18T05:23:56.297Z,-2.82
2022-12-18T05:24:56.278Z,-2.77
2022-12-18T05:25:56.265Z,-2.77
2022-12-18T05:26:56.269Z,-2.74
2022-12-18T05:27:56.275Z,-2.74
2022-12-18T05:28:56.235Z,-2.74
2022-12-18T05:29:56.227Z,-2.77
2022-12-18T05:30:56.290Z,-2.79
2022-12-18T05:31:56.283Z,-2.74
2022-12-18T05:32:56.196Z,-2.68
2022-12-18T05:33:56.175Z,-2.67
2022-12-18T05:34:56.168Z,-2.64
2022-12-18T05:35:56.168Z,-2.67
2022-12-18T05:36:56.138Z,-2.67
2022-12-18T05:37:56.129Z,-2.67
2022-12-18T05:38:56.112Z,-2.70
2022-12-18T05:39:56.095Z,-2.71
2022-12-18T05:40:56.095Z,-2.71
2022-12-18T05:41:56.086Z,-2.73
2022-12-18T05:42:56.127Z,-2.70
2022-12-18T05:43:56.076Z,-2.68
2022-12-18T05:44:56.053Z,-2.68
2022-12-18T05:45:56.065Z,-2.66
2022-12-18T05:46:56.089Z,-2.61
2022-12-18T05:47:56.027Z,-2.58
2022-12-18T05:48:55.999Z,-2.53
2022-12-18T05:49:56.002Z,-2.49
2022-12-18T05:50:55.983Z,-2.46
2022-12-18T05:51:55.976Z,-2.48
2022-12-18T05:52:55.955Z,-2.50
2022-12-18T05:53:55.945Z,-2.53
2022-12-18T05:54:55.927Z,-2.56
2022-12-18T05:55:55.937Z,-2.58
2022-12-18T05:56:55.901Z,-2.56
2022-12-18T05:57:55.905Z,-2.55
2022-12-18T05:58:55.906Z,-2.53
2022-12-18T05:59:55.874Z,-2.48
2022-12-18T06:00:55.874Z,-2.46
2022-12-18T06:01:55.985Z,-2.48
2022-12-18T06:02:55.967Z,-2.46
2022-12-18T06:03:55.908Z,-2.39
2022-12-18T06:04:55.838Z,-2.40
2022-12-18T06:05:55.823Z,-2.43
2022-12-18T06:06:55.789Z,-2.43
2022-12-18T06:07:55.785Z,-2.39
2022-12-18T06:08:55.795Z,-2.37
2022-12-18T06:09:55.787Z,-2.32
2022-12-18T06:10:55.753Z,-2.34
2022-12-18T06:11:55.755Z,-2.34
2022-12-18T06:12:55.722Z,-2.35
2022-12-18T06:13:58.533Z,-2.37
2022-12-18T06:14:55.722Z,-2.37
2022-12-18T06:15:55.728Z,-2.32
2022-12-18T06:16:55.682Z,-2.32
2022-12-18T06:17:55.681Z,-2.34
2022-12-18T06:18:55.668Z,-2.37
2022-12-18T06:19:55.658Z,-2.39
2022-12-18T06:20:55.656Z,-2.43
2022-12-18T06:21:55.643Z,-2.49
2022-12-18T06:22:55.620Z,-2.52
2022-12-18T06:23:55.619Z,-2.53
2022-12-18T06:24:55.605Z,-2.53
2022-12-18T06:25:55.580Z,-2.50
2022-12-18T06:26:55.578Z,-2.49
2022-12-18T06:27:55.574Z,-2.50
2022-12-18T06:28:55.558Z,-2.52
2022-12-18T06:29:55.537Z,-2.55
2022-12-18T06:30:55.528Z,-2.58
2022-12-18T06:31:55.610Z,-2.61
2022-12-18T06:32:56.943Z,-2.66
2022-12-18T06:33:55.493Z,-2.67
2022-12-18T06:34:55.492Z,-2.66
2022-12-18T06:36:00.881Z,-2.67
2022-12-18T06:36:55.497Z,-2.67
2022-12-18T06:37:55.437Z,-2.67
2022-12-18T06:38:55.428Z,-2.67
2022-12-18T06:39:55.417Z,-2.67
2022-12-18T06:40:55.407Z,-2.66
2022-12-18T06:41:55.389Z,-2.66
2022-12-18T06:42:55.415Z,-2.60
2022-12-18T06:43:59.588Z,-2.52
2022-12-18T06:44:55.363Z,-2.48
2022-12-18T06:45:55.395Z,-2.43
2022-12-18T06:46:55.339Z,-2.30
2022-12-18T06:47:55.332Z,-2.21
2022-12-18T06:48:55.323Z,-2.21
2022-12-18T06:49:55.322Z,-2.23
2022-12-18T06:50:55.297Z,-2.24
2022-12-18T06:51:55.281Z,-2.24
2022-12-18T06:52:55.279Z,-2.23
2022-12-18T06:53:55.282Z,-2.20
2022-12-18T06:54:55.253Z,-2.16
2022-12-18T06:55:55.241Z,-2.18
2022-12-18T06:56:55.236Z,-2.13
2022-12-18T06:57:55.224Z,-2.13
2022-12-18T06:58:55.212Z,-2.12
2022-12-18T06:59:55.197Z,-2.12
2022-12-18T07:00:55.240Z,-2.10
2022-12-18T07:01:55.422Z,-2.12
2022-12-18T07:02:55.293Z,-2.08
2022-12-18T07:03:55.170Z,-2.03
2022-12-18T07:04:55.149Z,-1.90
2022-12-18T07:05:55.148Z,-1.88
2022-12-18T07:06:55.133Z,-1.84
2022-12-18T07:07:55.107Z,-1.87
2022-12-18T07:08:55.127Z,-1.91
2022-12-18T07:09:55.090Z,-1.82
2022-12-18T07:10:56.413Z,-1.77
2022-12-18T07:11:55.083Z,-1.77
2022-12-18T07:12:55.078Z,-1.79
2022-12-18T07:13:55.050Z,-1.74
2022-12-18T07:14:55.030Z,-1.72
2022-12-18T07:15:55.208Z,-1.74
2022-12-18T07:16:55.047Z,-1.74
2022-12-18T07:17:55.011Z,-1.74
2022-12-18T07:18:55.009Z,-1.76
2022-12-18T07:19:54.993Z,-1.77
2022-12-18T07:20:54.970Z,-1.80
2022-12-18T07:21:54.950Z,-1.76
2022-12-18T07:22:56.490Z,-1.76
2022-12-18T07:23:54.943Z,-1.77
2022-12-18T07:24:54.928Z,-1.82
2022-12-18T07:25:54.916Z,-1.85
2022-12-18T07:26:54.903Z,-1.88
2022-12-18T07:27:54.884Z,-1.85
2022-12-18T07:28:54.871Z,-1.82
2022-12-18T07:29:54.877Z,-1.70
2022-12-18T07:30:54.859Z,-1.69
2022-12-18T07:31:54.876Z,-1.72
2022-12-18T07:32:54.862Z,-1.73
2022-12-18T07:33:54.818Z,-1.73
2022-12-18T07:34:54.811Z,-1.74
2022-12-18T07:35:54.794Z,-1.76
2022-12-18T07:36:54.786Z,-1.73
2022-12-18T07:37:54.783Z,-1.67
2022-12-18T07:38:54.810Z,-1.62
2022-12-18T07:39:54.764Z,-1.56
2022-12-18T07:40:54.746Z,-1.55
2022-12-18T07:41:54.730Z,-1.54
2022-12-18T07:42:54.724Z,-1.54
2022-12-18T07:43:54.700Z,-1.55
2022-12-18T07:44:54.746Z,-1.55
2022-12-18T07:45:54.723Z,-1.56
2022-12-18T07:46:54.689Z,-1.55
2022-12-18T07:47:54.666Z,-1.49
2022-12-18T07:48:54.681Z,-1.45
2022-12-18T07:49:54.648Z,-1.41
2022-12-18T07:50:54.624Z,-1.41
2022-12-18T07:51:54.618Z,-1.40
2022-12-18T07:52:54.615Z,-1.38
2022-12-18T07:53:54.614Z,-1.40
2022-12-18T07:54:54.601Z,-1.41
2022-12-18T07:56:25.480Z,-1.35
2022-12-18T07:56:54.572Z,-1.34
2022-12-18T07:58:00.648Z,-1.33
2022-12-18T07:58:54.560Z,-1.27
2022-12-18T07:59:54.541Z,-1.28
2022-12-18T08:00:54.595Z,-1.31
2022-12-18T08:01:54.833Z,-1.31
2022-12-18T08:02:54.728Z,-1.31
2022-12-18T08:03:54.495Z,-1.31
2022-12-18T08:04:54.483Z,-1.27
2022-12-18T08:05:54.474Z,-1.28
2022-12-18T08:06:54.480Z,-1.23
2022-12-18T08:07:54.452Z,-1.25
2022-12-18T08:08:54.476Z,-1.25
2022-12-18T08:09:54.424Z,-1.23
2022-12-18T08:10:54.493Z,-1.22
2022-12-18T08:11:54.399Z,-1.20
2022-12-18T08:12:54.405Z,-1.19
2022-12-18T08:13:54.380Z,-1.19
2022-12-18T08:14:54.365Z,-1.19
2022-12-18T08:15:54.364Z,-1.17
2022-12-18T08:16:54.383Z,-1.17
2022-12-18T08:17:54.342Z,-1.19
2022-12-18T08:18:54.348Z,-1.16
2022-12-18T08:19:54.309Z,-1.15
2022-12-18T08:20:54.289Z,-1.15
2022-12-18T08:21:54.284Z,-1.13
2022-12-18T08:22:54.270Z,-1.12
2022-12-18T08:23:54.275Z,-1.12
2022-12-18T08:24:54.282Z,-1.07
2022-12-18T08:25:54.264Z,-1.09
2022-12-18T08:27:20.811Z,-1.07
2022-12-18T08:27:54.229Z,-1.02
2022-12-18T08:28:54.205Z,-1.01
2022-12-18T08:29:54.227Z,-0.99
2022-12-18T08:30:54.213Z,-0.98
2022-12-18T08:31:54.232Z,-0.95
2022-12-18T08:32:54.160Z,-0.89
2022-12-18T08:33:54.142Z,-0.85
2022-12-18T08:34:54.747Z,-0.82
2022-12-18T08:35:54.141Z,-0.76
2022-12-18T08:36:54.392Z,-0.72
2022-12-18T08:37:54.096Z,-0.69
2022-12-18T08:38:54.183Z,-0.69
2022-12-18T08:39:54.082Z,-0.62
2022-12-18T08:40:54.076Z,-0.61
2022-12-18T08:41:54.051Z,-0.61
2022-12-18T08:42:54.034Z,-0.57
2022-12-18T08:43:54.026Z,-0.54
2022-12-18T08:44:54.017Z,-0.54
2022-12-18T08:45:54.148Z,-0.54
2022-12-18T08:46:53.989Z,-0.51
2022-12-18T08:47:53.981Z,-0.49
2022-12-18T08:48:53.983Z,-0.47
2022-12-18T08:49:53.960Z,-0.44
2022-12-18T08:50:53.950Z,-0.43
2022-12-18T08:51:53.954Z,-0.42
2022-12-18T08:52:53.930Z,-0.37
2022-12-18T08:53:53.923Z,-0.33
2022-12-18T08:54:53.900Z,-0.25
2022-12-18T08:55:53.901Z,-0.22
2022-12-18T08:56:53.908Z,-0.21
2022-12-18T08:57:53.894Z,-0.18
2022-12-18T08:58:53.852Z,-0.15
2022-12-18T08:59:53.845Z,-0.11
2022-12-18T09:00:53.923Z,-0.08
2022-12-18T09:01:53.939Z,-0.08
2022-12-18T09:02:54.012Z,-0.05
2022-12-18T09:03:53.820Z,-0.03
2022-12-18T09:04:57.342Z,0.03
2022-12-18T09:05:53.768Z,0.10
2022-12-18T09:06:53.786Z,0.10
2022-12-18T09:07:53.781Z,0.11
2022-12-18T09:08:53.757Z,0.14
2022-12-18T09:09:53.741Z,0.15
2022-12-18T09:10:53.729Z,0.21
2022-12-18T09:11:53.719Z,0.26
2022-12-18T09:12:53.696Z,0.31
2022-12-18T09:13:53.698Z,0.29
2022-12-18T09:14:53.689Z,0.29
2022-12-18T09:15:53.675Z,0.32
2022-12-18T09:16:53.733Z,0.35
2022-12-18T09:17:53.629Z,0.36
2022-12-18T09:18:53.630Z,0.38
2022-12-18T09:19:53.658Z,0.41
2022-12-18T09:20:53.595Z,0.44
2022-12-18T09:21:53.627Z,0.47
2022-12-18T09:22:53.584Z,0.49
2022-12-18T09:23:53.579Z,0.51
2022-12-18T09:24:53.617Z,0.55
2022-12-18T09:25:53.569Z,0.53
2022-12-18T09:26:57.659Z,0.57
2022-12-18T09:27:53.515Z,0.60
2022-12-18T09:28:53.521Z,0.61
2022-12-18T09:29:53.532Z,0.65
2022-12-18T09:30:53.511Z,0.66
2022-12-18T09:31:53.646Z,0.72
2022-12-18T09:32:53.458Z,0.70
2022-12-18T09:33:53.462Z,0.72
2022-12-18T09:34:53.455Z,0.73
2022-12-18T09:35:53.426Z,0.79
2022-12-18T09:36:53.425Z,0.84
2022-12-18T09:37:53.418Z,0.90
2022-12-18T09:38:53.403Z,0.96
2022-12-18T09:39:53.385Z,0.97
2022-12-18T09:40:53.376Z,1.02
2022-12-18T09:41:53.917Z,1.00
2022-12-18T09:42:53.352Z,0.97
2022-12-18T09:43:53.328Z,0.98
2022-12-18T09:44:53.344Z,1.02
2022-12-18T09:45:53.356Z,1.05
2022-12-18T09:46:53.292Z,1.08
2022-12-18T09:47:53.288Z,1.11
2022-12-18T09:48:53.316Z,1.11
2022-12-18T09:49:53.298Z,1.15
2022-12-18T09:50:53.255Z,1.14
2022-12-18T09:51:53.242Z,1.16
2022-12-18T09:52:53.233Z,1.18
2022-12-18T09:53:53.215Z,1.18
2022-12-18T09:54:53.198Z,1.20
2022-12-18T09:55:53.210Z,1.22
2022-12-18T09:56:53.188Z,1.20
2022-12-18T09:57:53.168Z,1.26
2022-12-18T09:58:53.175Z,1.30
2022-12-18T09:59:53.171Z,1.32
2022-12-18T10:00:53.146Z,1.33
2022-12-18T10:01:53.201Z,1.34
2022-12-18T10:02:53.314Z,1.34
2022-12-18T10:03:53.104Z,1.36
2022-12-18T10:04:53.112Z,1.36
2022-12-18T10:05:53.079Z,1.37
2022-12-18T10:06:53.060Z,1.40
2022-12-18T10:07:53.064Z,1.40
2022-12-18T10:08:53.048Z,1.37
2022-12-18T10:09:53.036Z,1.40
2022-12-18T10:10:53.063Z,1.37
2022-12-18T10:11:53.005Z,1.40
2022-12-18T10:12:53.004Z,1.40
2022-12-18T10:13:53.014Z,1.40
2022-12-18T10:14:52.971Z,1.42
2022-12-18T10:15:53.042Z,1.44
2022-12-18T10:16:52.973Z,1.47
2022-12-18T10:17:52.961Z,1.52
2022-12-18T10:18:52.951Z,1.54
2022-12-18T10:19:52.942Z,1.58
2022-12-18T10:20:52.913Z,1.52
2022-12-18T10:21:52.907Z,1.51
2022-12-18T10:22:52.890Z,1.51
2022-12-18T10:23:52.883Z,1.50
2022-12-18T10:24:52.873Z,1.50
2022-12-18T10:25:52.863Z,1.52
2022-12-18T10:26:52.839Z,1.54
2022-12-18T10:27:52.837Z,1.59
2022-12-18T10:28:52.814Z,1.65
2022-12-18T10:29:52.810Z,1.69
2022-12-18T10:30:52.865Z,1.72
2022-12-18T10:31:52.791Z,1.76
2022-12-18T10:32:52.770Z,1.70
2022-12-18T10:33:52.760Z,1.70
2022-12-18T10:34:58.293Z,1.73
2022-12-18T10:35:52.744Z,1.77
2022-12-18T10:36:52.745Z,1.79
2022-12-18T10:37:52.719Z,1.80
2022-12-18T10:38:52.724Z,1.81
2022-12-18T10:39:52.718Z,1.84
2022-12-18T10:40:52.684Z,1.84
2022-12-18T10:41:52.691Z,1.88
2022-12-18T10:42:52.672Z,1.91
2022-12-18T10:43:52.663Z,1.98
2022-12-18T10:44:52.650Z,1.98
2022-12-18T10:45:52.631Z,1.99
2022-12-18T10:46:52.702Z,2.03
2022-12-18T10:47:52.604Z,2.06
2022-12-18T10:48:52.617Z,2.09
2022-12-18T10:49:52.583Z,2.14
2022-12-18T10:51:52.572Z,2.21
2022-12-18T10:52:52.568Z,2.17
2022-12-18T10:53:52.539Z,2.17
2022-12-18T10:54:52.633Z,2.18
2022-12-18T10:55:52.516Z,2.21
2022-12-18T10:56:52.505Z,2.24
2022-12-18T10:57:52.508Z,2.24
2022-12-18T10:58:52.506Z,2.27
2022-12-18T10:59:52.490Z,2.31
2022-12-18T11:00:52.457Z,2.34
2022-12-18T11:01:52.618Z,2.38
2022-12-18T11:02:52.603Z,2.34
2022-12-18T11:03:56.361Z,2.39
2022-12-18T11:04:52.423Z,2.36
2022-12-18T11:05:52.430Z,2.39
2022-12-18T11:06:52.392Z,2.38
2022-12-18T11:07:52.389Z,2.36
2022-12-18T11:08:52.367Z,2.36
2022-12-18T11:09:52.371Z,2.36
2022-12-18T11:10:52.346Z,2.38
2022-12-18T11:11:52.435Z,2.35
2022-12-18T11:12:52.324Z,2.35
2022-12-18T11:13:52.357Z,2.39
2022-12-18T11:14:52.303Z,2.38
2022-12-18T11:15:52.382Z,2.39
2022-12-18T11:17:52.510Z,2.36
2022-12-18T11:18:52.267Z,2.36
2022-12-18T11:19:52.277Z,2.35
2022-12-18T11:20:58.191Z,2.38
2022-12-18T11:21:52.282Z,2.39
2022-12-18T11:22:52.273Z,2.43
2022-12-18T11:23:52.201Z,2.42
2022-12-18T11:25:14.936Z,2.43
2022-12-18T11:25:52.213Z,2.48
2022-12-18T11:26:57.844Z,2.49
2022-12-18T11:27:52.677Z,2.48
2022-12-18T11:28:52.155Z,2.45
2022-12-18T11:29:52.140Z,2.46
2022-12-18T11:30:52.186Z,2.46
2022-12-18T11:31:52.156Z,2.48
2022-12-18T11:32:52.336Z,2.46
2022-12-18T11:34:19.856Z,2.48
2022-12-18T11:34:57.383Z,2.46
2022-12-18T11:35:52.095Z,2.45
2022-12-18T11:36:52.056Z,2.43
2022-12-18T11:37:52.074Z,2.45
2022-12-18T11:38:52.034Z,2.45
2022-12-18T11:39:52.041Z,2.45
2022-12-18T11:40:52.034Z,2.45
2022-12-18T11:41:52.006Z,2.48
2022-12-18T11:42:52.024Z,2.52
2022-12-18T11:43:51.988Z,2.57
2022-12-18T11:44:52.000Z,2.59
2022-12-18T11:45:51.978Z,2.56
2022-12-18T11:46:52.003Z,2.54
2022-12-18T11:47:51.936Z,2.49
2022-12-18T11:48:51.919Z,2.48
2022-12-18T11:49:51.941Z,2.49
2022-12-18T11:50:51.902Z,2.45
2022-12-18T11:51:51.900Z,2.45
2022-12-18T11:52:56.723Z,2.46
2022-12-18T11:53:51.868Z,2.45
2022-12-18T11:54:51.867Z,2.42
2022-12-18T11:55:51.867Z,2.43
2022-12-18T11:56:51.916Z,2.45
2022-12-18T11:57:51.822Z,2.46
2022-12-18T11:58:51.810Z,2.48
2022-12-18T11:59:51.801Z,2.48
2022-12-18T12:00:51.813Z,2.53
2022-12-18T12:01:51.989Z,2.56
2022-12-18T12:02:51.844Z,2.54
2022-12-18T12:03:51.791Z,2.56
2022-12-18T12:04:51.755Z,2.54
2022-12-18T12:05:51.739Z,2.56
2022-12-18T12:06:51.733Z,2.56
2022-12-18T12:07:51.735Z,2.53
2022-12-18T12:08:51.696Z,2.54
2022-12-18T12:09:51.741Z,2.57
2022-12-18T12:10:51.679Z,2.59
2022-12-18T12:11:51.681Z,2.61
2022-12-18T12:12:51.720Z,2.60
2022-12-18T12:13:51.648Z,2.61
2022-12-18T12:14:51.669Z,2.61
2022-12-18T12:15:51.706Z,2.64
2022-12-18T12:16:51.610Z,2.59
2022-12-18T12:17:51.609Z,2.60
2022-12-18T12:18:51.599Z,2.61
2022-12-18T12:19:51.600Z,2.59
2022-12-18T12:20:51.586Z,2.57
2022-12-18T12:21:51.581Z,2.57
2022-12-18T12:22:51.551Z,2.53
2022-12-18T12:23:51.545Z,2.52
2022-12-18T12:24:51.540Z,2.49
2022-12-18T12:25:51.516Z,2.52
2022-12-18T12:26:51.499Z,2.52
2022-12-18T12:27:51.491Z,2.46
2022-12-18T12:28:51.492Z,2.45
2022-12-18T12:29:51.482Z,2.43
2022-12-18T12:30:51.483Z,2.43
2022-12-18T12:31:51.537Z,2.46
2022-12-18T12:32:51.446Z,2.48
2022-12-18T12:33:51.435Z,2.52
2022-12-18T12:34:53.678Z,2.54
2022-12-18T12:35:51.423Z,2.53
2022-12-18T12:36:51.418Z,2.49
2022-12-18T12:37:51.388Z,2.41
2022-12-18T12:38:52.292Z,2.36
2022-12-18T12:39:51.366Z,2.31
2022-12-18T12:40:58.522Z,2.28
2022-12-18T12:41:51.352Z,2.31
2022-12-18T12:42:51.347Z,2.34
2022-12-18T12:43:51.878Z,2.31
2022-12-18T12:44:55.783Z,2.25
2022-12-18T12:45:51.332Z,2.24
2022-12-18T12:46:51.271Z,2.25
2022-12-18T12:47:51.294Z,2.21
2022-12-18T12:48:51.250Z,2.17
2022-12-18T12:49:51.670Z,2.17
2022-12-18T12:50:51.242Z,2.20
2022-12-18T12:51:51.271Z,2.23
2022-12-18T12:52:51.203Z,2.25
2022-12-18T12:53:51.195Z,2.20
2022-12-18T12:54:51.750Z,2.20
2022-12-18T12:55:51.208Z,2.18
2022-12-18T12:56:51.187Z,2.17
2022-12-18T12:57:51.181Z,2.16
2022-12-18T12:58:51.178Z,2.16
2022-12-18T12:59:51.133Z,2.17
2022-12-18T13:00:51.180Z,2.17
2022-12-18T13:01:51.254Z,2.17
2022-12-18T13:02:51.094Z,2.18